Kuujjuarapik Airport
CYGW : now visible

Airfield :











YOU CAN JOIN US ON...

 
LOGIN :

Register | Disclaimer

   EN    FR    IT 

 









Legend :    VFR   Marginal VFR   IFR   Intensive IFR   Very Intensive IFR
Visi :
Ceiling :
>= 8 km
>= 3000ft
5 to 8 km
1000 to 3000 ft
1500m to 5 km
500 to 1000 ft
800 to 1500m
200 to 500 ft
< 800m
< 200 ft
Symbols :   Thunderstorms  Fog  Heavy snow  Heavy precipitations  Wind > 20 kt






- Airport Elevation : 34 ft
- IATA code : YGW


CYGW - Kuujjuarapik

CURRENT METAR :
  • 121801Z AUTO 20011G23KT 3SM HZ FEW042 SCT080 M18/M21 A3011 RMK SLP199

EXPIRED METARs :
  • 121741Z AUTO 21013G25KT 3SM HZ FEW040 M17/M21 A3010 RMK SLP197
  • 121700Z AUTO 21015G25KT 1SM -SN BKN038 OVC046 M17/M20 A3008 RMK VIS VRB 5/8-2 1/4 SLP189
  • 121643Z AUTO 21016G26KT 1/2SM SN BKN026 OVC033 M17/M20 A3007 RMK SLP185
  • 121600Z AUTO 21016G24KT 1/4SM +SN VV013 M16/M19 A3004 RMK SLP176
  • 121535Z AUTO 21014G21KT 1/4SM +SN VV010 M16/M19 A3003 RMK SLP174

TAF TAF CYGW
Valid from the 12 at 18:00 until the 13 at 06:00 UTC


121741Z 1218/1306 22015G25KT 3SM -SHSN BKN020 OVC040
TEMPO 1218/1220 1/2SM SHSN BLSN VV006
FM122000 20015G25KT 6SM -SHSN SCT015 BKN040
TEMPO 1220/1306 2SM -SHSN BLSN BKN015 OVC040
BECMG 1302/1304 20012G22KT RMK FCST BASED ON AUTO OBS. NXT FCST BY 130000Z



MET'MAP, your aeronautical weather chart ! - Copyright ORBIFLY December 2007 - Disclaimer

ORBIFLY MET'MAP TEAM :

Programming & Development : Alexandra Zaïnal
Concept & original design : Baudouin d'Aumeries
Assistance for programming : Marc-Olivier Méhu
Technical & hardware support : Manuel Goepfert

Contact : metmap@orbifly.com




SOURCES & CREDITS :

   NOAA       Earth
Advisory